Time;durP1;ratioP1;P1;durP2;ratioP2;P2;SDS_P1;SDS_P2;PMS_P1;PMS_P2;Temp;Humidity;BMP_temperature;BMP_pressure;BME280_temperature;BME280_humidity;BME280_pressure;Samples;Min_cycle;Max_cycle;Signal;HPM_P1;HPM_P2
2022/02/25 00:01:41;;;;;;;24.05;10.25;;;;;;;;;;5038181;28;20056;-90
2022/02/25 00:04:07;;;;;;;31.83;13.68;;;;;;;;;;5039292;28;20029;-91
2022/02/25 00:06:33;;;;;;;27.08;12.35;;;;;;;;;;5038140;28;20048;-90
2022/02/25 00:09:00;;;;;;;25.58;12.25;;;;;;;;;;5038949;28;20132;-90
2022/02/25 00:11:26;;;;;;;20.35;11.00;;;;;;;;;;5038967;28;20066;-91
2022/02/25 00:13:52;;;;;;;27.00;11.20;;;;;;;;;;5038113;28;20095;-90
2022/02/25 00:16:18;;;;;;;27.70;12.32;;;;;;;;;;5038650;28;20034;-90
2022/02/25 00:18:44;;;;;;;29.75;12.55;;;;;;;;;;5037934;28;20029;-91
2022/02/25 00:21:10;;;;;;;24.83;11.45;;;;;;;;;;5038624;28;20029;-90
2022/02/25 00:23:36;;;;;;;25.55;11.65;;;;;;;;;;5038878;28;20029;-91
2022/02/25 00:26:02;;;;;;;25.40;11.52;;;;;;;;;;5038748;28;20025;-90
2022/02/25 00:28:28;;;;;;;24.98;11.02;;;;;;;;;;5038703;28;20029;-91
2022/02/25 00:30:54;;;;;;;23.33;11.23;;;;;;;;;;5038911;28;20327;-91
2022/02/25 00:33:20;;;;;;;22.05;11.15;;;;;;;;;;5038240;28;20293;-89
2022/02/25 00:35:46;;;;;;;26.98;11.07;;;;;;;;;;5038511;28;20025;-91
2022/02/25 00:38:12;;;;;;;24.13;11.63;;;;;;;;;;5037581;28;20494;-90
2022/02/25 00:40:38;;;;;;;26.35;11.80;;;;;;;;;;5037781;28;20037;-91
2022/02/25 00:43:04;;;;;;;30.50;12.02;;;;;;;;;;5037749;28;20028;-91
2022/02/25 00:45:30;;;;;;;23.88;10.20;;;;;;;;;;5038671;28;20018;-91
2022/02/25 00:47:57;;;;;;;21.77;10.10;;;;;;;;;;5038502;28;20024;-91
2022/02/25 00:50:23;;;;;;;23.02;9.93;;;;;;;;;;5037550;28;20018;-91
2022/02/25 00:52:49;;;;;;;26.38;10.63;;;;;;;;;;5038217;28;20032;-91
2022/02/25 00:55:15;;;;;;;19.70;9.00;;;;;;;;;;5038321;28;20064;-91
2022/02/25 00:57:47;;;;;;;13.88;7.45;;;;;;;;;;5037942;28;20432;-91
2022/02/25 01:00:14;;;;;;;;;;;;;;;;;;5038367;28;20026;-90
2022/02/25 01:02:40;;;;;;;13.88;7.00;;;;;;;;;;5038521;28;19987;-90
2022/02/25 01:05:06;;;;;;;17.58;7.90;;;;;;;;;;5038229;28;20045;-90
2022/02/25 01:07:32;;;;;;;15.25;7.65;;;;;;;;;;5037238;28;20033;-90
2022/02/25 01:09:59;;;;;;;15.63;8.27;;;;;;;;;;5038032;28;20057;-90
2022/02/25 01:12:25;;;;;;;18.15;8.50;;;;;;;;;;5038011;28;20354;-90
2022/02/25 01:14:51;;;;;;;17.73;8.20;;;;;;;;;;5038319;28;20029;-91
2022/02/25 01:17:17;;;;;;;20.80;10.23;;;;;;;;;;5038139;28;20013;-90
2022/02/25 01:19:43;;;;;;;18.05;9.48;;;;;;;;;;5037716;28;20017;-90
2022/02/25 01:25:13;;;;;;;21.15;9.20;;;;;;;;;;5037842;28;20104;-89
2022/02/25 01:27:41;;;;;;;18.92;9.18;;;;;;;;;;5037799;28;20022;-89
2022/02/25 01:30:08;;;;;;;16.83;9.30;;;;;;;;;;5037661;28;20022;-90
2022/02/25 01:32:34;;;;;;;20.35;9.75;;;;;;;;;;5037244;28;20037;-90
2022/02/25 01:35:00;;;;;;;19.17;9.90;;;;;;;;;;5038025;28;20029;-91
2022/02/25 01:40:29;;;;;;;30.48;12.15;;;;;;;;;;5037503;28;20178;-92
2022/02/25 01:42:55;;;;;;;28.98;12.18;;;;;;;;;;5038002;28;20041;-92
2022/02/25 01:45:22;;;;;;;22.58;12.05;;;;;;;;;;5037945;28;20026;-89
2022/02/25 01:47:48;;;;;;;33.72;13.48;;;;;;;;;;5037546;28;20017;-90
2022/02/25 01:50:14;;;;;;;33.67;13.23;;;;;;;;;;5037782;28;20026;-89
2022/02/25 01:52:47;;;;;;;31.15;13.95;;;;;;;;;;5037506;28;20028;-90
2022/02/25 01:55:13;;;;;;;29.15;14.05;;;;;;;;;;5037361;28;20392;-90
2022/02/25 01:57:39;;;;;;;26.58;13.00;;;;;;;;;;5037612;28;20030;-90
2022/02/25 02:00:06;;;;;;;33.50;14.85;;;;;;;;;;5037478;28;20052;-90
2022/02/25 02:02:33;;;;;;;46.20;18.40;;;;;;;;;;5037599;28;20408;-90
2022/02/25 02:04:59;;;;;;;52.55;21.73;;;;;;;;;;5037486;28;20045;-90
2022/02/25 02:07:25;;;;;;;44.53;18.95;;;;;;;;;;5037660;28;20022;-90
2022/02/25 02:09:51;;;;;;;47.97;18.85;;;;;;;;;;5036529;28;20046;-90
2022/02/25 02:12:17;;;;;;;40.08;16.35;;;;;;;;;;5037756;28;20032;-91
2022/02/25 02:14:45;;;;;;;37.40;16.05;;;;;;;;;;5037353;28;20423;-90
2022/02/25 02:17:11;;;;;;;36.05;16.55;;;;;;;;;;5037639;28;20042;-90
2022/02/25 02:19:38;;;;;;;33.72;15.50;;;;;;;;;;5036334;28;20026;-91
2022/02/25 02:22:04;;;;;;;35.47;16.70;;;;;;;;;;5037497;28;20032;-90
2022/02/25 02:24:30;;;;;;;33.65;16.42;;;;;;;;;;5037275;28;20067;-91
2022/02/25 02:26:56;;;;;;;30.13;15.90;;;;;;;;;;5037555;28;20311;-91
2022/02/25 02:29:23;;;;;;;40.30;16.55;;;;;;;;;;5037054;28;20024;-90
2022/02/25 02:31:49;;;;;;;33.00;15.15;;;;;;;;;;5037430;28;20353;-92
2022/02/25 02:34:17;;;;;;;30.45;14.57;;;;;;;;;;5037493;28;20025;-91
2022/02/25 02:36:43;;;;;;;30.17;13.73;;;;;;;;;;5036142;28;20030;-91
2022/02/25 02:39:10;;;;;;;25.95;13.35;;;;;;;;;;5037147;28;20079;-91
2022/02/25 02:41:37;;;;;;;25.48;13.27;;;;;;;;;;5036387;28;20431;-92
2022/02/25 02:44:03;;;;;;;26.52;13.80;;;;;;;;;;5040600;28;20026;-91
2022/02/25 02:46:30;;;;;;;26.80;13.80;;;;;;;;;;5041216;28;20022;-91
2022/02/25 02:48:56;;;;;;;26.90;13.35;;;;;;;;;;5040240;28;20022;-91
2022/02/25 02:51:22;;;;;;;27.40;14.40;;;;;;;;;;5040879;28;20092;-89
2022/02/25 02:53:48;;;;;;;28.23;13.23;;;;;;;;;;5040706;28;20305;-91
2022/02/25 02:56:14;;;;;;;26.65;13.80;;;;;;;;;;5040877;28;20021;-91
2022/02/25 02:58:40;;;;;;;28.08;13.57;;;;;;;;;;5040694;28;20064;-92
2022/02/25 03:01:06;;;;;;;27.85;14.57;;;;;;;;;;5040378;28;20112;-91
2022/02/25 03:03:32;;;;;;;27.45;13.50;;;;;;;;;;5039820;28;20029;-90
2022/02/25 03:05:58;;;;;;;32.72;14.85;;;;;;;;;;5040787;28;20017;-91
2022/02/25 03:08:56;;;;;;;30.55;14.95;;;;;;;;;;5036992;28;20030;-90
2022/02/25 03:11:22;;;;;;;28.83;13.70;;;;;;;;;;5040203;28;20359;-92
2022/02/25 03:13:49;;;;;;;29.92;15.38;;;;;;;;;;5040250;28;20374;-91
2022/02/25 03:16:15;;;;;;;27.50;14.18;;;;;;;;;;5040109;28;20045;-91
2022/02/25 03:18:41;;;;;;;29.45;15.50;;;;;;;;;;5040380;28;20028;-91
2022/02/25 03:26:55;;;;;;;34.92;15.30;;;;;;;;;;5040356;28;20021;-92
2022/02/25 03:29:22;;;;;;;29.40;14.40;;;;;;;;;;5040070;28;20032;-91
2022/02/25 03:31:48;;;;;;;28.40;15.07;;;;;;;;;;5038707;28;20116;-90
2022/02/25 03:34:14;;;;;;;27.48;14.05;;;;;;;;;;5040112;28;20068;-90
2022/02/25 03:36:40;;;;;;;27.40;14.50;;;;;;;;;;5039829;28;20025;-92
2022/02/25 03:39:06;;;;;;;29.00;14.68;;;;;;;;;;5039927;28;20026;-90
2022/02/25 03:41:32;;;;;;;32.28;15.38;;;;;;;;;;5038766;28;20053;-91
2022/02/25 03:43:59;;;;;;;31.88;15.13;;;;;;;;;;5040065;28;20033;-91
2022/02/25 03:46:25;;;;;;;30.45;14.70;;;;;;;;;;5039801;28;20033;-92
2022/02/25 03:48:51;;;;;;;29.83;14.43;;;;;;;;;;5038711;28;20116;-92
2022/02/25 03:57:25;;;;;;;31.45;13.50;;;;;;;;;;5039582;28;20120;-93
2022/02/25 03:59:51;;;;;;;33.25;14.60;;;;;;;;;;5039659;28;20404;-92
2022/02/25 04:02:17;;;;;;;27.42;12.93;;;;;;;;;;5039240;28;20029;-91
2022/02/25 04:04:43;;;;;;;29.67;14.57;;;;;;;;;;5039221;28;20018;-91
2022/02/25 04:10:33;;;;;;;32.15;15.55;;;;;;;;;;5025972;28;20048;-90
2022/02/25 04:12:59;;;;;;;30.70;18.27;;;;;;;;;;5039408;28;20039;-90
2022/02/25 04:15:25;;;;;;;123.47;84.28;;;;;;;;;;5038969;28;20017;-90
2022/02/25 04:17:51;;;;;;;73.80;48.80;;;;;;;;;;5039308;28;20026;-90
2022/02/25 04:20:17;;;;;;;61.28;37.58;;;;;;;;;;5039224;28;20022;-92
2022/02/25 04:22:43;;;;;;;55.35;32.08;;;;;;;;;;5037933;28;20025;-92
2022/02/25 04:25:09;;;;;;;40.67;21.73;;;;;;;;;;5038793;28;20025;-92
2022/02/25 04:27:37;;;;;;;47.90;21.17;;;;;;;;;;5038972;28;20032;-91
2022/02/25 04:30:04;;;;;;;48.13;23.15;;;;;;;;;;5038969;28;20028;-93
2022/02/25 04:32:30;;;;;;;54.30;26.77;;;;;;;;;;5038789;28;20029;-90
2022/02/25 04:34:56;;;;;;;55.55;25.35;;;;;;;;;;5038501;28;20470;-90
2022/02/25 04:37:40;;;;;;;47.13;21.95;;;;;;;;;;5038836;28;20037;-89
2022/02/25 04:40:07;;;;;;;45.80;22.63;;;;;;;;;;5037671;28;20041;-90
2022/02/25 04:42:33;;;;;;;56.10;26.60;;;;;;;;;;5038672;28;20033;-91
2022/02/25 04:44:59;;;;;;;60.72;28.65;;;;;;;;;;5037586;28;20026;-89
2022/02/25 04:47:26;;;;;;;52.00;24.65;;;;;;;;;;5037581;28;20017;-89
2022/02/25 04:49:52;;;;;;;46.13;22.63;;;;;;;;;;5037883;28;20033;-89
2022/02/25 04:52:18;;;;;;;46.85;22.48;;;;;;;;;;5038639;28;20392;-89
2022/02/25 04:54:44;;;;;;;44.42;21.60;;;;;;;;;;5038579;28;20034;-89
2022/02/25 04:57:11;;;;;;;38.13;18.48;;;;;;;;;;5038279;28;20414;-89
2022/02/25 04:59:37;;;;;;;36.03;17.58;;;;;;;;;;5038400;28;20021;-89
2022/02/25 05:02:04;;;;;;;39.05;19.00;;;;;;;;;;5038068;28;20025;-90
2022/02/25 05:04:30;;;;;;;35.30;17.95;;;;;;;;;;5037229;28;20112;-90
2022/02/25 05:06:56;;;;;;;30.40;16.70;;;;;;;;;;5037969;28;20022;-89
2022/02/25 05:09:22;;;;;;;36.90;18.67;;;;;;;;;;5037985;28;20057;-90
2022/02/25 05:11:48;;;;;;;41.42;21.48;;;;;;;;;;5037986;28;20125;-90
2022/02/25 05:25:32;;;;;;;201.40;89.60;;;;;;;;;;5026276;28;20062;-90
2022/02/25 05:27:59;;;;;;;268.77;112.70;;;;;;;;;;5022996;28;20026;-89
2022/02/25 05:30:25;;;;;;;203.98;80.68;;;;;;;;;;5018902;28;20388;-89
2022/02/25 05:32:52;;;;;;;206.52;68.53;;;;;;;;;;5017353;28;20332;-93
2022/02/25 05:35:18;;;;;;;373.70;101.38;;;;;;;;;;5018093;28;20022;-93
2022/02/25 05:40:48;;;;;;;134.85;50.03;;;;;;;;;;5018132;28;20091;-93
2022/02/25 05:43:14;;;;;;;97.63;38.58;;;;;;;;;;5018174;28;20028;-94
2022/02/25 05:45:40;;;;;;;62.08;29.55;;;;;;;;;;5018145;28;20024;-94
2022/02/25 05:48:06;;;;;;;37.70;19.77;;;;;;;;;;5018089;28;20061;-92
2022/02/25 05:50:32;;;;;;;37.53;17.88;;;;;;;;;;5018045;28;20025;-93
2022/02/25 05:52:59;;;;;;;39.40;17.40;;;;;;;;;;5016895;28;20046;-93
2022/02/25 05:55:25;;;;;;;32.95;15.32;;;;;;;;;;5017843;28;20052;-92
2022/02/25 05:57:51;;;;;;;29.17;14.77;;;;;;;;;;5017756;28;20136;-93
2022/02/25 06:00:19;;;;;;;30.58;14.90;;;;;;;;;;5016542;28;20022;-93
2022/02/25 06:02:47;;;;;;;28.40;14.40;;;;;;;;;;5016346;28;20034;-92
2022/02/25 06:05:13;;;;;;;39.40;16.98;;;;;;;;;;5016402;28;20416;-93
2022/02/25 06:07:40;;;;;;;53.65;22.52;;;;;;;;;;5017306;28;20508;-91
2022/02/25 06:10:07;;;;;;;57.13;21.98;;;;;;;;;;5017846;28;20080;-92
2022/02/25 06:12:33;;;;;;;44.65;19.88;;;;;;;;;;5016472;28;20084;-93
2022/02/25 06:14:59;;;;;;;48.70;20.25;;;;;;;;;;5017963;28;20025;-93
2022/02/25 06:17:25;;;;;;;51.15;20.77;;;;;;;;;;5018448;28;20030;-92
2022/02/25 06:19:52;;;;;;;48.85;21.10;;;;;;;;;;5020399;28;20029;-93
2022/02/25 06:22:18;;;;;;;46.70;21.42;;;;;;;;;;5021164;28;20081;-93
2022/02/25 06:24:44;;;;;;;41.13;17.65;;;;;;;;;;5020373;28;20022;-92
2022/02/25 06:27:10;;;;;;;37.05;16.98;;;;;;;;;;5020299;28;20026;-93
2022/02/25 06:29:36;;;;;;;36.78;18.25;;;;;;;;;;5021230;28;20431;-93
2022/02/25 06:32:02;;;;;;;33.83;16.70;;;;;;;;;;5021258;28;20053;-93
2022/02/25 06:34:28;;;;;;;30.02;17.38;;;;;;;;;;5020465;28;20056;-94
2022/02/25 06:36:54;;;;;;;30.52;16.45;;;;;;;;;;5021176;28;20026;-91
2022/02/25 06:39:20;;;;;;;32.00;16.25;;;;;;;;;;5021075;28;20037;-92
2022/02/25 06:41:46;;;;;;;29.77;15.88;;;;;;;;;;5021133;28;20022;-92
2022/02/25 06:44:13;;;;;;;30.27;15.60;;;;;;;;;;5020038;28;20105;-92
2022/02/25 06:46:39;;;;;;;30.45;15.88;;;;;;;;;;5021142;28;20036;-93
2022/02/25 06:49:05;;;;;;;30.67;15.80;;;;;;;;;;5019977;28;20026;-92
2022/02/25 06:51:31;;;;;;;34.63;16.83;;;;;;;;;;5021363;28;20054;-92
2022/02/25 06:53:58;;;;;;;39.22;18.67;;;;;;;;;;5032043;28;20068;-92
2022/02/25 06:56:24;;;;;;;108.32;41.30;;;;;;;;;;5040492;28;20021;-92
2022/02/25 06:58:50;;;;;;;98.80;41.97;;;;;;;;;;5040548;28;20033;-92
2022/02/25 07:01:17;;;;;;;99.80;40.25;;;;;;;;;;5040327;28;20032;-93
2022/02/25 07:03:43;;;;;;;55.22;26.35;;;;;;;;;;5039406;28;20099;-92
2022/02/25 07:06:10;;;;;;;45.53;23.17;;;;;;;;;;5039363;28;20017;-93
2022/02/25 07:08:36;;;;;;;52.30;23.60;;;;;;;;;;5039237;28;20037;-94
2022/02/25 07:11:02;;;;;;;41.33;22.00;;;;;;;;;;5039313;28;20057;-93
2022/02/25 07:13:28;;;;;;;53.83;24.38;;;;;;;;;;5040462;28;20071;-92
2022/02/25 07:15:55;;;;;;;39.88;19.30;;;;;;;;;;5040133;28;20036;-92
2022/02/25 07:18:22;;;;;;;32.85;16.50;;;;;;;;;;5040134;28;20033;-92
2022/02/25 07:20:48;;;;;;;34.75;16.95;;;;;;;;;;5039197;28;20498;-92
2022/02/25 07:23:16;;;;;;;32.00;15.75;;;;;;;;;;5040110;28;20107;-92
2022/02/25 07:25:42;;;;;;;33.55;16.08;;;;;;;;;;5040376;28;20105;-94
2022/02/25 07:28:08;;;;;;;35.72;16.92;;;;;;;;;;5040642;28;20032;-93
2022/02/25 07:30:35;;;;;;;31.52;15.77;;;;;;;;;;5039132;28;20462;-92
2022/02/25 07:33:01;;;;;;;29.75;15.60;;;;;;;;;;5039427;28;20149;-93
2022/02/25 07:35:28;;;;;;;32.78;16.17;;;;;;;;;;5043061;28;20068;-92
2022/02/25 07:37:55;;;;;;;27.60;15.25;;;;;;;;;;5045402;28;20033;-93
2022/02/25 07:40:23;;;;;;;31.05;14.50;;;;;;;;;;5044298;28;20073;-91
2022/02/25 07:42:49;;;;;;;31.88;15.27;;;;;;;;;;5043640;28;20321;-95
2022/02/25 07:45:15;;;;;;;39.08;18.98;;;;;;;;;;5040849;28;20100;-94
2022/02/25 07:47:41;;;;;;;47.78;19.10;;;;;;;;;;5040212;28;20307;-94
2022/02/25 07:50:12;;;;;;;34.80;18.02;;;;;;;;;;5038648;28;20034;-94
2022/02/25 07:52:39;;;;;;;37.17;17.52;;;;;;;;;;5039474;28;20025;-96
2022/02/25 07:55:06;;;;;;;35.42;17.20;;;;;;;;;;5039814;28;20025;-96
2022/02/25 07:57:32;;;;;;;54.17;33.55;;;;;;;;;;5039405;28;20037;-96
2022/02/25 07:59:58;;;;;;;421.10;319.77;;;;;;;;;;5039464;28;20041;-95
2022/02/25 08:02:25;;;;;;;121.50;94.50;;;;;;;;;;5039528;28;20375;-96
2022/02/25 08:04:51;;;;;;;85.13;50.45;;;;;;;;;;5038324;28;20053;-96
2022/02/25 08:07:18;;;;;;;65.18;36.78;;;;;;;;;;5039190;28;20025;-96
2022/02/25 08:09:44;;;;;;;153.23;91.25;;;;;;;;;;5039031;28;20032;-94
2022/02/25 08:12:10;;;;;;;653.78;369.02;;;;;;;;;;5039057;28;20042;-96
2022/02/25 08:14:38;;;;;;;722.55;316.10;;;;;;;;;;5038202;28;20034;-95
2022/02/25 08:17:05;;;;;;;968.63;365.92;;;;;;;;;;5038564;28;20061;-95
2022/02/25 08:19:31;;;;;;;618.05;224.82;;;;;;;;;;5039164;28;20028;-95
2022/02/25 08:21:57;;;;;;;481.63;156.68;;;;;;;;;;5038829;28;20423;-94
2022/02/25 08:24:24;;;;;;;747.65;290.75;;;;;;;;;;5037905;28;20018;-95
2022/02/25 08:26:50;;;;;;;1289.25;576.22;;;;;;;;;;5038942;28;20025;-92
2022/02/25 08:29:16;;;;;;;364.02;136.98;;;;;;;;;;5038834;28;20108;-94
2022/02/25 08:31:44;;;;;;;635.95;306.15;;;;;;;;;;5038370;28;20064;-92
2022/02/25 08:34:10;;;;;;;587.55;288.27;;;;;;;;;;5038697;28;20029;-92
2022/02/25 08:36:36;;;;;;;795.22;399.50;;;;;;;;;;5038866;28;20060;-92
2022/02/25 08:39:03;;;;;;;1829.85;845.33;;;;;;;;;;5037548;28;20033;-92
2022/02/25 08:41:29;;;;;;;1238.15;658.20;;;;;;;;;;5038008;28;20446;-94
2022/02/25 08:43:55;;;;;;;662.13;341.40;;;;;;;;;;5038472;28;20342;-93
2022/02/25 08:46:22;;;;;;;1999.90;883.00;;;;;;;;;;5037872;28;20084;-93
2022/02/25 08:48:48;;;;;;;874.45;474.83;;;;;;;;;;5037737;28;20028;-94
2022/02/25 08:51:15;;;;;;;355.27;143.32;;;;;;;;;;5032631;28;20025;-92
2022/02/25 08:53:41;;;;;;;99.95;43.45;;;;;;;;;;5020740;28;20129;-93
2022/02/25 08:56:08;;;;;;;536.92;191.07;;;;;;;;;;5021013;28;20026;-92
2022/02/25 08:58:35;;;;;;;262.52;85.13;;;;;;;;;;5018314;28;20033;-92
2022/02/25 09:01:01;;;;;;;142.13;48.45;;;;;;;;;;5017402;28;20022;-91
2022/02/25 09:03:27;;;;;;;160.68;46.28;;;;;;;;;;5018335;28;20034;-92
2022/02/25 09:05:53;;;;;;;336.42;100.28;;;;;;;;;;5018716;28;20354;-92
2022/02/25 09:08:19;;;;;;;331.48;94.22;;;;;;;;;;5017410;28;20026;-93
2022/02/25 09:10:47;;;;;;;54.95;22.27;;;;;;;;;;5017371;28;20037;-91
2022/02/25 09:13:13;;;;;;;33.95;14.68;;;;;;;;;;5017457;28;20121;-92
2022/02/25 09:15:39;;;;;;;65.43;22.45;;;;;;;;;;5018621;28;20297;-91
2022/02/25 09:18:10;;;;;;;29.85;14.85;;;;;;;;;;5018043;28;20038;-91
2022/02/25 09:20:36;;;;;;;37.50;16.27;;;;;;;;;;5018276;28;20084;-92
2022/02/25 09:23:02;;;;;;;36.65;15.02;;;;;;;;;;5018069;28;20405;-92
2022/02/25 09:25:28;;;;;;;39.50;18.60;;;;;;;;;;5018067;28;20026;-92
2022/02/25 09:27:55;;;;;;;53.20;23.58;;;;;;;;;;5017966;28;20032;-93
2022/02/25 09:30:22;;;;;;;61.38;24.17;;;;;;;;;;5017081;28;20429;-93
2022/02/25 09:32:48;;;;;;;33.95;17.08;;;;;;;;;;5018098;28;20030;-91
2022/02/25 09:35:14;;;;;;;36.15;16.70;;;;;;;;;;5018098;28;20040;-92
2022/02/25 09:37:40;;;;;;;49.58;20.40;;;;;;;;;;5016963;28;20026;-93
2022/02/25 09:40:08;;;;;;;31.13;16.65;;;;;;;;;;5017880;28;20408;-92
2022/02/25 09:42:35;;;;;;;38.70;19.40;;;;;;;;;;5017437;28;20030;-93
2022/02/25 09:45:01;;;;;;;38.83;20.13;;;;;;;;;;5017671;28;20088;-93
2022/02/25 09:47:28;;;;;;;38.83;17.20;;;;;;;;;;5017110;28;20034;-92
2022/02/25 09:49:54;;;;;;;42.00;19.75;;;;;;;;;;5017758;28;20025;-92
2022/02/25 09:52:21;;;;;;;112.10;41.72;;;;;;;;;;5018520;28;20116;-93
2022/02/25 09:54:47;;;;;;;219.20;76.00;;;;;;;;;;5022103;28;20113;-92
2022/02/25 09:57:13;;;;;;;268.85;94.28;;;;;;;;;;5020928;28;20108;-93
2022/02/25 09:59:39;;;;;;;62.42;25.30;;;;;;;;;;5021897;28;20044;-91
2022/02/25 10:02:08;;;;;;;46.35;22.67;;;;;;;;;;5020818;28;20412;-93
2022/02/25 10:04:35;;;;;;;99.40;40.47;;;;;;;;;;5020694;28;20363;-92
2022/02/25 10:07:01;;;;;;;112.35;45.03;;;;;;;;;;5021846;28;20045;-92
2022/02/25 10:09:29;;;;;;;37.88;19.70;;;;;;;;;;5020706;28;20026;-91
2022/02/25 10:12:01;;;;;;;135.50;53.85;;;;;;;;;;5021556;28;20049;-92
2022/02/25 10:14:44;;;;;;;156.18;64.43;;;;;;;;;;5021950;28;20108;-92
2022/02/25 10:17:15;;;;;;;114.18;46.72;;;;;;;;;;5021510;28;20030;-92
2022/02/25 10:19:43;;;;;;;58.75;26.08;;;;;;;;;;5021603;28;20047;-91
2022/02/25 10:22:18;;;;;;;101.68;40.72;;;;;;;;;;5021235;28;20034;-92
2022/02/25 10:24:50;;;;;;;64.28;27.13;;;;;;;;;;5030682;28;20045;-91
2022/02/25 10:27:17;;;;;;;72.50;27.50;;;;;;;;;;5021351;28;20033;-91
2022/02/25 10:29:53;;;;;;;281.77;90.95;;;;;;;;;;5021397;28;20048;-91
2022/02/25 10:32:26;;;;;;;85.32;33.63;;;;;;;;;;5033588;28;20097;-91
2022/02/25 10:34:52;;;;;;;164.32;60.22;;;;;;;;;;5040092;28;20033;-92
2022/02/25 10:37:18;;;;;;;136.10;48.75;;;;;;;;;;5042241;28;20034;-94
2022/02/25 10:39:44;;;;;;;36.97;17.88;;;;;;;;;;5040505;28;20031;-88
2022/02/25 10:42:14;;;;;;;73.15;29.50;;;;;;;;;;5040880;28;20029;-84
2022/02/25 10:44:40;;;;;;;234.05;86.60;;;;;;;;;;5039934;28;20301;-88
2022/02/25 10:47:18;;;;;;;123.22;47.70;;;;;;;;;;5040824;28;20025;-90
2022/02/25 10:49:45;;;;;;;50.63;22.48;;;;;;;;;;5040140;28;20028;-91
2022/02/25 10:52:22;;;;;;;30.40;14.52;;;;;;;;;;5040972;28;20057;-90
2022/02/25 10:54:48;;;;;;;226.25;90.38;;;;;;;;;;5031099;28;20045;-92
2022/02/25 10:57:14;;;;;;;95.93;39.20;;;;;;;;;;5040440;28;20427;-91
2022/02/25 10:59:44;;;;;;;143.90;56.92;;;;;;;;;;5040458;28;20037;-90
2022/02/25 11:02:26;;;;;;;224.65;90.93;;;;;;;;;;5039456;28;20040;-92
2022/02/25 11:05:05;;;;;;;90.63;39.92;;;;;;;;;;5040213;28;20124;-91
2022/02/25 11:10:35;;;;;;;220.98;98.05;;;;;;;;;;5040238;28;20056;-92
2022/02/25 11:13:05;;;;;;;48.72;23.50;;;;;;;;;;5039681;28;20044;-91
2022/02/25 11:15:33;;;;;;;44.17;23.00;;;;;;;;;;5039469;28;20026;-92
2022/02/25 11:17:59;;;;;;;92.57;44.38;;;;;;;;;;5039226;28;20040;-91
2022/02/25 11:20:27;;;;;;;125.57;58.63;;;;;;;;;;5040471;28;20040;-90
2022/02/25 11:22:54;;;;;;;38.33;17.70;;;;;;;;;;5040082;28;20080;-85
2022/02/25 11:25:21;;;;;;;74.60;30.42;;;;;;;;;;5039906;28;20028;-87
2022/02/25 11:27:47;;;;;;;256.33;93.38;;;;;;;;;;5040070;28;20025;-87
2022/02/25 11:30:17;;;;;;;85.75;34.13;;;;;;;;;;5040084;28;20025;-88
2022/02/25 11:32:49;;;;;;;247.48;84.72;;;;;;;;;;5039940;28;20057;-89
2022/02/25 11:35:20;;;;;;;285.23;100.38;;;;;;;;;;5039228;28;20040;-87
2022/02/25 11:37:51;;;;;;;411.92;147.95;;;;;;;;;;5038657;28;20053;-87
2022/02/25 11:40:18;;;;;;;215.38;79.40;;;;;;;;;;5038621;28;20030;-88
2022/02/25 11:42:47;;;;;;;174.90;62.85;;;;;;;;;;5039885;28;20443;-87
2022/02/25 11:45:18;;;;;;;62.25;28.65;;;;;;;;;;5039514;28;20022;-88
2022/02/25 11:47:48;;;;;;;37.15;17.05;;;;;;;;;;5039782;28;20355;-87
2022/02/25 11:50:34;;;;;;;26.70;13.95;;;;;;;;;;5039623;28;20017;-87
2022/02/25 11:53:01;;;;;;;41.53;20.45;;;;;;;;;;5038651;28;20057;-87
2022/02/25 11:55:34;;;;;;;40.13;18.15;;;;;;;;;;5039666;28;20060;-87
2022/02/25 11:58:23;;;;;;;95.38;36.05;;;;;;;;;;5039535;28;20113;-87
2022/02/25 12:01:05;;;;;;;149.20;56.80;;;;;;;;;;5039152;28;20022;-88
2022/02/25 12:03:35;;;;;;;34.65;16.75;;;;;;;;;;5039198;28;20064;-87
2022/02/25 12:06:01;;;;;;;59.55;26.73;;;;;;;;;;5039218;28;20400;-87
2022/02/25 12:08:28;;;;;;;76.20;35.67;;;;;;;;;;5039092;28;20029;-87
2022/02/25 12:10:57;;;;;;;69.28;31.40;;;;;;;;;;5039191;28;20079;-86
2022/02/25 12:13:24;;;;;;;38.50;18.50;;;;;;;;;;5038213;28;20029;-88
2022/02/25 12:15:50;;;;;;;79.80;31.20;;;;;;;;;;5037075;28;20022;-87
2022/02/25 12:18:18;;;;;;;240.88;89.80;;;;;;;;;;5038831;28;20029;-87
2022/02/25 12:20:46;;;;;;;223.90;83.85;;;;;;;;;;5038240;28;20061;-87
2022/02/25 12:23:12;;;;;;;41.30;17.38;;;;;;;;;;5038771;28;20026;-86
2022/02/25 12:25:41;;;;;;;156.43;56.67;;;;;;;;;;5038320;28;20030;-87
2022/02/25 12:28:28;;;;;;;249.00;85.90;;;;;;;;;;5038732;28;20104;-87
2022/02/25 12:30:58;;;;;;;507.90;204.20;;;;;;;;;;5038102;28;20056;-87
2022/02/25 12:33:33;;;;;;;341.10;131.45;;;;;;;;;;5038774;28;20056;-87
2022/02/25 12:36:02;;;;;;;107.55;43.97;;;;;;;;;;5038519;28;20043;-86
2022/02/25 12:38:30;;;;;;;153.00;63.53;;;;;;;;;;5034934;28;20063;-87
2022/02/25 12:41:16;;;;;;;159.70;63.00;;;;;;;;;;5037553;28;20025;-87
2022/02/25 12:43:44;;;;;;;123.47;48.47;;;;;;;;;;5038463;28;20025;-87
2022/02/25 12:46:11;;;;;;;87.60;35.05;;;;;;;;;;5038483;28;20025;-87
2022/02/25 12:48:37;;;;;;;78.47;35.20;;;;;;;;;;5026060;28;20049;-88
2022/02/25 12:51:04;;;;;;;51.22;26.95;;;;;;;;;;5018001;28;20038;-87
2022/02/25 12:53:30;;;;;;;52.92;26.08;;;;;;;;;;5018465;28;20026;-91
2022/02/25 12:55:57;;;;;;;48.75;26.40;;;;;;;;;;5018535;28;20112;-86
2022/02/25 12:58:35;;;;;;;28.17;14.93;;;;;;;;;;5018640;28;20369;-85
2022/02/25 13:01:03;;;;;;;35.92;18.70;;;;;;;;;;5020520;28;20036;-85
2022/02/25 13:03:31;;;;;;;23.45;13.40;;;;;;;;;;5032332;28;20403;-85
2022/02/25 13:05:57;;;;;;;26.48;12.93;;;;;;;;;;5037075;28;20029;-85
2022/02/25 13:08:29;;;;;;;28.00;15.20;;;;;;;;;;5037958;28;20026;-86
2022/02/25 13:10:55;;;;;;;;;;;;;;;;;;5037298;28;20042;-85
2022/02/25 13:13:22;;;;;;;20.63;10.70;;;;;;;;;;5037862;28;19932;-85
2022/02/25 13:15:48;;;;;;;32.03;14.73;;;;;;;;;;5038037;28;20120;-86
2022/02/25 13:18:21;;;;;;;21.55;10.77;;;;;;;;;;5037789;28;20025;-86
2022/02/25 13:21:06;;;;;;;32.80;16.38;;;;;;;;;;5037525;28;20096;-85
2022/02/25 13:23:33;;;;;;;29.20;15.60;;;;;;;;;;5037777;28;20022;-85
2022/02/25 13:26:01;;;;;;;22.75;11.88;;;;;;;;;;5037715;28;20335;-85
2022/02/25 13:28:27;;;;;;;21.67;12.38;;;;;;;;;;5037860;28;20042;-85
2022/02/25 13:30:54;;;;;;;22.42;13.48;;;;;;;;;;5037052;28;20029;-85
2022/02/25 13:33:20;;;;;;;19.20;11.18;;;;;;;;;;5037584;28;20068;-85
2022/02/25 13:35:49;;;;;;;19.75;11.23;;;;;;;;;;5035508;28;20025;-85
2022/02/25 13:38:21;;;;;;;23.55;11.68;;;;;;;;;;5024250;28;20349;-86
2022/02/25 13:40:47;;;;;;;17.83;10.10;;;;;;;;;;5016841;28;20028;-85
2022/02/25 13:43:26;;;;;;;20.58;10.30;;;;;;;;;;5017764;28;20034;-85
2022/02/25 13:45:57;;;;;;;21.90;12.38;;;;;;;;;;5017724;28;20064;-85
2022/02/25 13:53:58;;;;;;;24.70;12.80;;;;;;;;;;5018085;28;20053;-85
2022/02/25 13:56:32;;;;;;;24.85;11.90;;;;;;;;;;5016984;28;20041;-85
2022/02/25 13:59:09;;;;;;;23.15;11.40;;;;;;;;;;5017372;28;20026;-85
2022/02/25 14:01:35;;;;;;;16.95;9.48;;;;;;;;;;5017428;28;20025;-85
2022/02/25 14:04:18;;;;;;;19.50;10.05;;;;;;;;;;5017433;28;20112;-85
2022/02/25 14:07:10;;;;;;;21.52;10.52;;;;;;;;;;5017483;28;20048;-85
2022/02/25 14:09:40;;;;;;;15.45;9.25;;;;;;;;;;5018029;28;20052;-85
2022/02/25 14:12:06;;;;;;;23.30;10.32;;;;;;;;;;5017434;28;20124;-85
2022/02/25 14:14:37;;;;;;;21.88;10.63;;;;;;;;;;5017727;28;20329;-85
2022/02/25 14:17:10;;;;;;;17.15;9.70;;;;;;;;;;5017258;28;20030;-85
2022/02/25 14:19:36;;;;;;;18.98;9.80;;;;;;;;;;5017330;28;20033;-84
2022/02/25 14:22:31;;;;;;;20.48;11.18;;;;;;;;;;5017376;28;20037;-85
2022/02/25 14:24:57;;;;;;;23.30;11.35;;;;;;;;;;5017413;28;20038;-85
2022/02/25 14:27:23;;;;;;;23.02;11.02;;;;;;;;;;5017132;28;20030;-85
2022/02/25 14:29:59;;;;;;;22.75;11.50;;;;;;;;;;5017448;28;20022;-85
2022/02/25 14:32:25;;;;;;;24.55;12.35;;;;;;;;;;5016288;28;20051;-85
2022/02/25 14:34:51;;;;;;;34.17;15.98;;;;;;;;;;5017376;28;20026;-87
2022/02/25 14:37:24;;;;;;;158.98;55.42;;;;;;;;;;5017640;28;20026;-88
2022/02/25 14:39:51;;;;;;;70.30;25.13;;;;;;;;;;5020388;28;20054;-87
2022/02/25 14:42:17;;;;;;;163.35;53.72;;;;;;;;;;5021073;28;20068;-88
2022/02/25 14:44:43;;;;;;;140.25;48.03;;;;;;;;;;5020033;28;20030;-86
2022/02/25 14:47:09;;;;;;;117.43;41.25;;;;;;;;;;5020785;28;20049;-87
2022/02/25 14:49:35;;;;;;;139.80;47.80;;;;;;;;;;5021138;28;20022;-87
2022/02/25 14:52:01;;;;;;;112.32;38.22;;;;;;;;;;5020722;28;20439;-87
2022/02/25 14:54:27;;;;;;;108.28;34.15;;;;;;;;;;5020626;28;20034;-87
2022/02/25 14:56:54;;;;;;;64.00;24.60;;;;;;;;;;5020873;28;20033;-87
2022/02/25 14:59:20;;;;;;;126.72;44.80;;;;;;;;;;5020973;28;20033;-87
2022/02/25 15:01:47;;;;;;;102.55;40.67;;;;;;;;;;5020504;28;20033;-87